createdAt,value
2018-03-22T00:00:02.934Z,16.30
2018-03-22T00:01:02.902Z,11.40
2018-03-22T00:02:02.873Z,12.90
2018-03-22T00:03:02.842Z,13.70
2018-03-22T00:04:02.808Z,10.40
2018-03-22T00:05:02.778Z,14.60
2018-03-22T00:06:02.751Z,13.00
2018-03-22T00:07:02.717Z,14.60
2018-03-22T00:08:02.686Z,13.90
2018-03-22T00:09:02.657Z,16.10
2018-03-22T00:10:02.626Z,17.20
2018-03-22T00:11:02.593Z,10.90
2018-03-22T00:12:02.562Z,10.20
2018-03-22T00:13:02.532Z,14.40
2018-03-22T00:14:02.504Z,12.90
2018-03-22T00:15:02.475Z,9.50
2018-03-22T00:16:02.450Z,14.40
2018-03-22T00:17:02.408Z,14.30
2018-03-22T00:18:02.389Z,12.60
2018-03-22T00:19:02.347Z,12.00
2018-03-22T00:20:02.319Z,11.80
2018-03-22T00:21:02.286Z,11.80
2018-03-22T00:22:02.254Z,12.30
2018-03-22T00:23:02.227Z,12.80
2018-03-22T00:24:02.191Z,12.90
2018-03-22T00:25:02.160Z,14.50
2018-03-22T00:26:02.133Z,14.00
2018-03-22T00:27:02.399Z,11.20
2018-03-22T00:28:02.071Z,11.90
2018-03-22T00:29:02.039Z,10.60
2018-03-22T00:30:02.009Z,11.40
2018-03-22T00:31:01.974Z,12.70
2018-03-22T00:32:01.944Z,13.90
2018-03-22T00:33:01.912Z,11.60
2018-03-22T00:34:01.896Z,13.80
2018-03-22T00:35:01.856Z,11.40
2018-03-22T00:36:01.823Z,10.20
2018-03-22T00:37:01.795Z,9.20
2018-03-22T00:38:01.759Z,12.70
2018-03-22T00:39:01.727Z,12.00
2018-03-22T00:40:01.695Z,10.70
2018-03-22T00:41:01.664Z,12.30
2018-03-22T00:42:01.633Z,9.10
2018-03-22T00:43:01.606Z,8.40
2018-03-22T00:44:01.570Z,14.10
2018-03-22T00:45:01.542Z,13.50
2018-03-22T00:46:01.513Z,13.80
2018-03-22T00:47:01.481Z,13.00
2018-03-22T00:48:01.447Z,15.30
2018-03-22T00:49:01.419Z,12.10
2018-03-22T00:50:01.387Z,15.40
2018-03-22T00:51:02.155Z,13.40
2018-03-22T00:52:01.323Z,16.90
2018-03-22T00:53:01.293Z,12.90
2018-03-22T00:54:01.262Z,11.40
2018-03-22T00:55:01.231Z,9.90
2018-03-22T00:56:01.202Z,13.20
2018-03-22T00:57:01.171Z,8.80
2018-03-22T00:58:01.138Z,9.90
2018-03-22T00:59:01.107Z,12.10
2018-03-22T01:00:01.076Z,10.10
2018-03-22T01:01:01.045Z,11.80
2018-03-22T01:02:01.017Z,11.10
2018-03-22T01:03:00.984Z,12.30
2018-03-22T01:04:00.953Z,12.00
2018-03-22T01:05:00.921Z,10.70
2018-03-22T01:06:00.890Z,11.10
2018-03-22T01:07:00.859Z,7.80
2018-03-22T01:08:00.828Z,12.90
2018-03-22T01:09:00.797Z,10.10
2018-03-22T01:10:00.771Z,12.50
2018-03-22T01:11:00.738Z,9.20
2018-03-22T01:12:00.703Z,10.90
2018-03-22T01:13:00.675Z,18.20
2018-03-22T01:14:00.642Z,10.30
2018-03-22T01:15:00.614Z,9.30
2018-03-22T01:16:00.579Z,9.50
2018-03-22T01:17:00.548Z,12.60
2018-03-22T01:18:00.518Z,8.80
2018-03-22T01:19:00.486Z,9.00
2018-03-22T01:20:00.456Z,14.20
2018-03-22T01:21:00.432Z,11.10
2018-03-22T01:22:00.402Z,11.70
2018-03-22T01:23:00.362Z,11.10
2018-03-22T01:24:00.333Z,9.40
2018-03-22T01:25:00.308Z,11.30
2018-03-22T01:26:00.269Z,12.20
2018-03-22T01:27:00.238Z,12.00
2018-03-22T01:28:00.210Z,10.30
2018-03-22T01:29:00.175Z,10.00
2018-03-22T01:30:00.148Z,12.80
2018-03-22T01:31:00.114Z,13.20
2018-03-22T01:32:00.083Z,14.20
2018-03-22T01:33:00.060Z,10.90
2018-03-22T01:34:00.021Z,10.50
2018-03-22T01:34:59.990Z,10.30
2018-03-22T01:35:59.958Z,11.60
2018-03-22T01:36:59.927Z,11.80
2018-03-22T01:37:59.896Z,13.00
2018-03-22T01:38:59.865Z,11.60
2018-03-22T01:39:59.834Z,13.60
2018-03-22T01:40:59.802Z,16.00
2018-03-22T01:41:59.771Z,12.70
2018-03-22T01:42:59.741Z,12.50
2018-03-22T01:43:59.709Z,14.00
2018-03-22T01:44:59.680Z,15.00
2018-03-22T01:45:59.646Z,15.80
2018-03-22T01:46:59.615Z,13.30
2018-03-22T01:47:59.585Z,11.00
2018-03-22T01:48:59.553Z,16.50
2018-03-22T01:49:59.522Z,15.30
2018-03-22T01:50:59.490Z,14.50
2018-03-22T01:51:59.458Z,19.30
2018-03-22T01:52:59.427Z,15.60
2018-03-22T01:53:59.400Z,16.00
2018-03-22T01:54:59.364Z,14.10
2018-03-22T01:55:59.336Z,13.40
2018-03-22T01:56:59.302Z,11.10
2018-03-22T01:57:59.269Z,17.50
2018-03-22T01:58:59.238Z,16.50
2018-03-22T01:59:59.205Z,19.50
2018-03-22T02:00:59.177Z,24.90
2018-03-22T02:01:59.141Z,17.40
2018-03-22T02:02:59.110Z,14.50
2018-03-22T02:03:59.080Z,19.90
2018-03-22T02:04:59.046Z,19.10
2018-03-22T02:05:59.014Z,16.70
2018-03-22T02:06:58.997Z,18.10
2018-03-22T02:07:58.955Z,15.40
2018-03-22T02:08:58.936Z,16.40
2018-03-22T02:09:58.896Z,21.30
2018-03-22T02:10:58.857Z,17.30
2018-03-22T02:11:58.822Z,16.30
2018-03-22T02:12:58.788Z,20.90
2018-03-22T02:13:58.757Z,18.70
2018-03-22T02:14:58.725Z,19.20
2018-03-22T02:15:58.694Z,19.70
2018-03-22T02:16:58.661Z,18.80
2018-03-22T02:17:58.627Z,20.00
2018-03-22T02:18:58.595Z,18.00
2018-03-22T02:19:58.562Z,17.20
2018-03-22T02:20:58.536Z,16.80
2018-03-22T02:21:58.501Z,18.30
2018-03-22T02:22:58.471Z,20.20
2018-03-22T02:23:58.432Z,17.80
2018-03-22T02:24:58.400Z,19.00
2018-03-22T02:25:58.376Z,17.90
2018-03-22T02:26:58.335Z,16.10
2018-03-22T02:27:58.302Z,22.90
2018-03-22T02:28:58.270Z,21.30
2018-03-22T02:29:58.236Z,21.30
2018-03-22T02:30:58.205Z,17.50
2018-03-22T02:31:58.172Z,23.10
2018-03-22T02:32:58.139Z,20.90
2018-03-22T02:33:58.106Z,20.70
2018-03-22T02:34:58.074Z,21.80
2018-03-22T02:35:58.046Z,21.10
2018-03-22T02:36:58.009Z,20.90
2018-03-22T02:37:57.984Z,21.50
2018-03-22T02:38:57.945Z,23.50
2018-03-22T02:39:57.917Z,21.40
2018-03-22T02:40:57.879Z,21.70
2018-03-22T02:41:57.851Z,22.80
2018-03-22T02:42:57.812Z,25.00
2018-03-22T02:43:57.779Z,22.90
2018-03-22T02:44:57.746Z,21.30
2018-03-22T02:45:57.714Z,25.70
2018-03-22T02:46:57.686Z,29.20
2018-03-22T02:47:57.649Z,23.90
2018-03-22T02:48:57.615Z,32.10
2018-03-22T02:49:57.587Z,24.60
2018-03-22T02:50:57.552Z,27.00
2018-03-22T02:51:57.516Z,25.60
2018-03-22T02:52:57.488Z,28.90
2018-03-22T02:53:57.452Z,31.00
2018-03-22T02:54:57.422Z,32.40
2018-03-22T02:55:57.386Z,27.70
2018-03-22T02:56:57.354Z,30.10
2018-03-22T02:57:57.326Z,31.10
2018-03-22T02:58:57.291Z,29.50
2018-03-22T02:59:57.256Z,32.50
2018-03-22T03:00:57.224Z,28.50
2018-03-22T03:01:57.191Z,31.20
2018-03-22T03:02:57.159Z,31.00
2018-03-22T03:03:57.125Z,27.60
2018-03-22T03:04:57.093Z,35.60
2018-03-22T03:05:57.060Z,30.80
2018-03-22T03:06:57.034Z,30.50
2018-03-22T03:07:56.996Z,30.20
2018-03-22T03:08:56.961Z,37.50
2018-03-22T03:09:56.929Z,30.70
2018-03-22T03:10:56.896Z,27.50
2018-03-22T03:11:56.863Z,27.90
2018-03-22T03:12:56.834Z,30.60
2018-03-22T03:13:56.800Z,29.30
2018-03-22T03:14:56.766Z,24.30
2018-03-22T03:15:56.738Z,22.80
2018-03-22T03:16:56.701Z,27.10
2018-03-22T03:17:56.668Z,26.80
2018-03-22T03:18:56.642Z,29.00
2018-03-22T03:19:56.607Z,27.20
2018-03-22T03:20:56.569Z,29.00
2018-03-22T03:21:56.550Z,26.50
2018-03-22T03:22:56.506Z,26.80
2018-03-22T03:23:56.472Z,24.30
2018-03-22T03:24:56.440Z,27.50
2018-03-22T03:25:56.408Z,25.20
2018-03-22T03:26:56.376Z,29.70
2018-03-22T03:27:56.342Z,26.60
2018-03-22T03:28:56.310Z,32.70
2018-03-22T03:29:56.278Z,27.60
2018-03-22T03:30:56.248Z,27.10
2018-03-22T03:31:56.212Z,32.10
2018-03-22T03:32:56.181Z,29.40
2018-03-22T03:33:56.156Z,30.30
2018-03-22T03:34:56.116Z,27.40
2018-03-22T03:35:56.083Z,33.00
2018-03-22T03:36:56.051Z,29.50
2018-03-22T03:37:56.019Z,29.60
2018-03-22T03:38:55.987Z,30.70
2018-03-22T03:39:55.953Z,26.90
2018-03-22T03:40:55.921Z,29.60
2018-03-22T03:41:55.889Z,25.00
2018-03-22T03:42:55.859Z,30.20
2018-03-22T03:43:55.824Z,36.10
2018-03-22T03:44:55.800Z,29.80
2018-03-22T03:45:55.759Z,27.60
2018-03-22T03:46:55.729Z,25.30
2018-03-22T03:47:55.695Z,28.60
2018-03-22T03:48:55.663Z,28.30
2018-03-22T03:49:55.630Z,24.30
2018-03-22T03:50:55.598Z,29.00
2018-03-22T03:51:55.566Z,26.80
2018-03-22T03:52:55.585Z,28.70
2018-03-22T03:53:55.501Z,31.60
2018-03-22T03:54:55.473Z,29.30
2018-03-22T03:55:55.437Z,27.20
2018-03-22T03:56:55.406Z,32.10
2018-03-22T03:57:55.373Z,27.60
2018-03-22T03:58:55.344Z,26.40
2018-03-22T03:59:55.307Z,35.10
2018-03-22T04:00:55.274Z,29.80
2018-03-22T04:01:55.242Z,27.00
2018-03-22T04:02:55.210Z,28.80
2018-03-22T04:03:55.179Z,34.30
2018-03-22T04:04:55.147Z,40.30
2018-03-22T04:05:55.115Z,30.00
2018-03-22T04:06:55.081Z,36.40
2018-03-22T04:07:55.050Z,31.00
2018-03-22T04:08:55.023Z,36.60
2018-03-22T04:09:54.983Z,29.90
2018-03-22T04:10:54.951Z,34.90
2018-03-22T04:11:54.920Z,32.10
2018-03-22T04:12:54.886Z,35.00
2018-03-22T04:13:54.854Z,30.70
2018-03-22T04:14:54.823Z,26.00
2018-03-22T04:15:54.790Z,29.30
2018-03-22T04:16:54.758Z,28.10
2018-03-22T04:17:54.768Z,34.30
2018-03-22T04:18:54.693Z,38.80
2018-03-22T04:19:54.659Z,37.20
2018-03-22T04:20:54.627Z,32.20
2018-03-22T04:21:54.596Z,31.90
2018-03-22T04:22:54.566Z,41.20
2018-03-22T04:23:54.530Z,31.00
2018-03-22T04:24:54.501Z,40.10
2018-03-22T04:25:54.465Z,42.90
2018-03-22T04:26:54.485Z,36.90
2018-03-22T04:27:54.399Z,43.80
2018-03-22T04:28:54.368Z,43.80
2018-03-22T04:29:54.338Z,37.60
2018-03-22T04:30:54.306Z,28.30
2018-03-22T04:31:54.271Z,46.80
2018-03-22T04:32:54.242Z,33.60
2018-03-22T04:33:54.205Z,38.80
2018-03-22T04:34:54.178Z,42.80
2018-03-22T04:35:54.140Z,39.80
2018-03-22T04:36:54.107Z,39.00
2018-03-22T04:37:54.076Z,30.10
2018-03-22T04:38:54.046Z,35.70
2018-03-22T04:39:54.011Z,35.90
2018-03-22T04:40:53.978Z,34.10
2018-03-22T04:41:53.946Z,26.10
2018-03-22T04:42:53.915Z,33.90
2018-03-22T04:43:54.132Z,36.30
2018-03-22T04:44:53.853Z,29.50
2018-03-22T04:45:53.816Z,36.00
2018-03-22T04:46:53.785Z,39.20
2018-03-22T04:47:53.752Z,50.10
2018-03-22T04:48:53.721Z,40.00
2018-03-22T04:49:53.688Z,44.90
2018-03-22T04:50:53.655Z,48.90
2018-03-22T04:51:53.625Z,54.10
2018-03-22T04:52:53.590Z,52.20
2018-03-22T04:53:53.560Z,45.30
2018-03-22T04:54:53.529Z,53.20
2018-03-22T04:55:53.493Z,41.30
2018-03-22T04:56:53.461Z,37.60
2018-03-22T04:57:53.437Z,48.20
2018-03-22T04:58:53.398Z,40.20
2018-03-22T04:59:53.364Z,46.10
2018-03-22T05:00:53.332Z,41.30
2018-03-22T05:01:53.301Z,51.70
2018-03-22T05:02:53.269Z,39.00
2018-03-22T05:03:53.236Z,49.30
2018-03-22T05:04:53.204Z,45.20
2018-03-22T05:05:53.175Z,35.50
2018-03-22T05:06:53.145Z,36.40
2018-03-22T05:07:53.108Z,39.60
2018-03-22T05:08:53.076Z,33.20
2018-03-22T05:09:53.046Z,32.70
2018-03-22T05:10:53.018Z,47.40
2018-03-22T05:11:52.980Z,50.90
2018-03-22T05:12:52.954Z,34.70
2018-03-22T05:13:52.916Z,35.60
2018-03-22T05:14:52.892Z,45.10
2018-03-22T05:15:52.852Z,37.10
2018-03-22T05:16:52.820Z,43.60
2018-03-22T05:17:52.789Z,34.40
2018-03-22T05:18:52.756Z,31.30
2018-03-22T05:19:52.726Z,46.10
2018-03-22T05:20:52.692Z,33.70
2018-03-22T05:21:52.660Z,33.00
2018-03-22T05:22:52.631Z,48.30
2018-03-22T05:23:52.596Z,43.20
2018-03-22T05:24:52.567Z,46.30
2018-03-22T05:25:52.533Z,53.30
2018-03-22T05:26:52.503Z,56.40
2018-03-22T05:27:52.472Z,56.50
2018-03-22T05:28:52.442Z,63.20
2018-03-22T05:29:52.406Z,36.50
2018-03-22T05:30:52.374Z,35.30
2018-03-22T05:31:52.345Z,51.70
2018-03-22T05:32:52.312Z,55.10
2018-03-22T05:33:52.278Z,45.30
2018-03-22T05:34:52.247Z,38.20
2018-03-22T05:35:52.218Z,50.30
2018-03-22T05:36:52.187Z,48.50
2018-03-22T05:37:52.156Z,56.90
2018-03-22T05:38:52.119Z,73.10
2018-03-22T05:39:52.131Z,48.40
2018-03-22T05:40:52.055Z,49.60
2018-03-22T05:41:52.024Z,51.30
2018-03-22T05:42:51.992Z,41.60
2018-03-22T05:43:51.973Z,55.90
2018-03-22T05:44:51.930Z,70.10
2018-03-22T05:45:51.905Z,43.10
2018-03-22T05:46:51.868Z,41.50
2018-03-22T05:47:51.833Z,60.10
2018-03-22T05:48:51.801Z,66.00
2018-03-22T05:49:51.769Z,71.80
2018-03-22T05:50:51.767Z,67.10
2018-03-22T05:51:51.706Z,80.20
2018-03-22T05:52:51.675Z,97.10
2018-03-22T05:53:51.648Z,83.00
2018-03-22T05:54:51.612Z,91.10
2018-03-22T05:55:51.579Z,84.30
2018-03-22T05:56:51.546Z,77.20
2018-03-22T05:57:51.568Z,102.90
2018-03-22T05:58:51.484Z,69.80
2018-03-22T05:59:51.456Z,94.20
2018-03-22T06:00:51.421Z,111.70
2018-03-22T06:01:51.390Z,84.00
2018-03-22T06:02:51.364Z,73.70
2018-03-22T06:03:51.326Z,70.10
2018-03-22T06:04:51.294Z,60.40
2018-03-22T06:05:51.263Z,82.90
2018-03-22T06:06:51.231Z,89.90
2018-03-22T06:07:51.198Z,70.60
2018-03-22T06:08:51.190Z,64.50
2018-03-22T06:09:51.139Z,66.20
2018-03-22T06:10:51.108Z,61.80
2018-03-22T06:11:51.073Z,73.20
2018-03-22T06:12:51.047Z,59.20
2018-03-22T06:13:51.010Z,78.20
2018-03-22T06:14:50.978Z,47.00
2018-03-22T06:15:50.947Z,73.60
2018-03-22T06:16:50.914Z,60.10
2018-03-22T06:17:50.883Z,63.70
2018-03-22T06:18:50.852Z,37.90
2018-03-22T06:19:50.823Z,79.80
2018-03-22T06:20:50.789Z,89.30
2018-03-22T06:21:50.760Z,64.30
2018-03-22T06:22:50.726Z,51.40
2018-03-22T06:23:50.693Z,70.90
2018-03-22T06:24:50.665Z,65.00
2018-03-22T06:25:50.630Z,76.10
2018-03-22T06:26:50.599Z,61.20
2018-03-22T06:27:50.569Z,66.40
2018-03-22T06:28:50.535Z,55.90
2018-03-22T06:29:50.506Z,52.90
2018-03-22T06:30:50.473Z,67.70
2018-03-22T06:31:50.441Z,60.50
2018-03-22T06:32:50.418Z,53.20
2018-03-22T06:33:50.379Z,60.30
2018-03-22T06:34:50.347Z,81.20
2018-03-22T06:35:50.315Z,45.00
2018-03-22T06:36:50.284Z,47.40
2018-03-22T06:37:50.253Z,69.90
2018-03-22T06:38:50.222Z,63.70
2018-03-22T06:39:50.189Z,50.20
2018-03-22T06:40:50.159Z,51.50
2018-03-22T06:41:50.127Z,59.40
2018-03-22T06:42:50.096Z,57.60
2018-03-22T06:43:50.065Z,66.50
2018-03-22T06:44:50.033Z,53.70
2018-03-22T06:45:50.002Z,50.10
2018-03-22T06:46:49.975Z,60.10
2018-03-22T06:47:49.939Z,59.60
2018-03-22T06:48:49.908Z,66.60
2018-03-22T06:49:49.877Z,47.80
2018-03-22T06:50:49.846Z,61.70
2018-03-22T06:51:49.815Z,52.90
2018-03-22T06:52:49.783Z,52.40
2018-03-22T06:53:49.751Z,41.30
2018-03-22T06:54:49.720Z,52.50
2018-03-22T06:55:49.688Z,45.10
2018-03-22T06:56:49.657Z,45.90
2018-03-22T06:57:49.626Z,67.50
2018-03-22T06:58:49.610Z,60.10
2018-03-22T06:59:49.564Z,48.10
2018-03-22T07:00:49.533Z,43.40
2018-03-22T07:01:49.503Z,57.00
2018-03-22T07:02:49.472Z,42.20
2018-03-22T07:03:49.439Z,36.60
2018-03-22T07:04:49.408Z,36.90
2018-03-22T07:05:49.377Z,36.10
2018-03-22T07:06:49.347Z,30.70
2018-03-22T07:07:49.315Z,35.10
2018-03-22T07:08:49.285Z,51.00
2018-03-22T07:09:49.259Z,47.20
2018-03-22T07:10:49.224Z,37.90
2018-03-22T07:11:49.191Z,32.20
2018-03-22T07:12:49.160Z,30.90
2018-03-22T07:13:49.129Z,43.50
2018-03-22T07:14:49.101Z,37.30
2018-03-22T07:15:49.067Z,32.80
2018-03-22T07:16:49.037Z,34.00
2018-03-22T07:17:49.006Z,36.30
2018-03-22T07:18:48.974Z,30.00
2018-03-22T07:19:48.986Z,30.00
2018-03-22T07:20:48.919Z,23.10
2018-03-22T07:21:48.881Z,26.10
2018-03-22T07:22:48.851Z,32.50
2018-03-22T07:23:48.820Z,35.00
2018-03-22T07:24:48.791Z,32.70
2018-03-22T07:25:48.758Z,24.90
2018-03-22T07:26:48.728Z,25.80
2018-03-22T07:27:48.696Z,27.70
2018-03-22T07:28:48.666Z,31.10
2018-03-22T07:29:48.635Z,33.80
2018-03-22T07:30:48.605Z,33.60
2018-03-22T07:31:48.574Z,31.60
2018-03-22T07:32:48.544Z,29.50
2018-03-22T07:33:48.513Z,26.10
2018-03-22T07:34:48.490Z,28.20
2018-03-22T07:35:48.490Z,27.80
2018-03-22T07:36:48.432Z,30.80
2018-03-22T07:37:48.397Z,32.50
2018-03-22T07:38:48.360Z,33.80
2018-03-22T07:39:48.329Z,29.10
2018-03-22T07:40:48.298Z,28.80
2018-03-22T07:41:48.269Z,25.70
2018-03-22T07:42:48.239Z,36.50
2018-03-22T07:43:48.234Z,33.90
2018-03-22T07:44:48.177Z,30.00
2018-03-22T07:45:48.229Z,30.90
2018-03-22T07:46:48.153Z,30.10
2018-03-22T07:47:48.087Z,29.80
2018-03-22T07:48:48.056Z,22.80
2018-03-22T07:49:48.025Z,26.50
2018-03-22T07:50:47.996Z,31.10
2018-03-22T07:51:47.970Z,31.30
2018-03-22T07:52:47.934Z,26.10
2018-03-22T07:53:47.906Z,26.30
2018-03-22T07:54:47.875Z,25.70
2018-03-22T07:55:47.848Z,24.20
2018-03-22T07:56:47.813Z,28.10
2018-03-22T07:57:47.786Z,26.10
2018-03-22T07:58:47.752Z,27.40
2018-03-22T07:59:47.745Z,24.50
2018-03-22T08:00:47.690Z,33.10
2018-03-22T08:01:47.685Z,35.20
2018-03-22T08:02:47.631Z,32.10
2018-03-22T08:03:47.621Z,28.80
2018-03-22T08:04:47.570Z,32.60
2018-03-22T08:05:47.581Z,29.60
2018-03-22T08:06:47.512Z,29.20
2018-03-22T08:07:47.479Z,32.10
2018-03-22T08:08:47.448Z,29.40
2018-03-22T08:09:47.419Z,30.20
2018-03-22T08:10:47.388Z,24.80
2018-03-22T08:11:47.357Z,24.20
2018-03-22T08:12:47.327Z,27.60
2018-03-22T08:13:47.301Z,36.90
2018-03-22T08:14:47.271Z,27.10
2018-03-22T08:15:47.238Z,28.00
2018-03-22T08:16:47.206Z,33.20
2018-03-22T08:17:47.176Z,30.00
2018-03-22T08:18:47.147Z,38.80
2018-03-22T08:19:47.116Z,37.40
2018-03-22T08:20:47.127Z,32.50
2018-03-22T08:21:47.056Z,37.80
2018-03-22T08:22:47.026Z,36.80
2018-03-22T08:23:46.995Z,37.80
2018-03-22T08:24:46.965Z,40.70
2018-03-22T08:25:46.940Z,46.20
2018-03-22T08:26:46.912Z,39.90
2018-03-22T08:27:46.874Z,36.90
2018-03-22T08:28:46.850Z,34.80
2018-03-22T08:29:46.814Z,28.20
2018-03-22T08:30:46.787Z,32.10
2018-03-22T08:31:46.754Z,34.60
2018-03-22T08:32:46.724Z,42.50
2018-03-22T08:33:46.698Z,39.90
2018-03-22T08:34:46.664Z,44.50
2018-03-22T08:35:46.636Z,42.10
2018-03-22T08:36:46.606Z,37.00
2018-03-22T08:37:46.574Z,56.50
2018-03-22T08:38:46.545Z,44.90
2018-03-22T08:39:46.514Z,40.70
2018-03-22T08:40:46.487Z,44.10
2018-03-22T08:41:46.455Z,39.30
2018-03-22T08:42:46.433Z,37.40
2018-03-22T08:43:46.394Z,32.70
2018-03-22T08:44:46.365Z,44.60
2018-03-22T08:45:46.335Z,43.30
2018-03-22T08:46:46.305Z,46.30
2018-03-22T08:47:46.275Z,41.80
2018-03-22T08:48:46.245Z,44.70
2018-03-22T08:49:46.218Z,29.80
2018-03-22T08:50:46.186Z,45.60
2018-03-22T08:51:46.156Z,41.70
2018-03-22T08:52:46.127Z,51.70
2018-03-22T08:53:46.097Z,47.30
2018-03-22T08:54:46.120Z,41.10
2018-03-22T08:55:46.040Z,53.10
2018-03-22T08:56:46.009Z,51.10
2018-03-22T08:57:45.982Z,49.70
2018-03-22T08:58:45.949Z,45.00
2018-03-22T08:59:45.962Z,44.80
2018-03-22T09:00:45.889Z,50.60
2018-03-22T09:01:45.861Z,39.70
2018-03-22T09:02:45.831Z,50.70
2018-03-22T09:03:45.806Z,57.90
2018-03-22T09:04:45.772Z,49.80
2018-03-22T09:05:45.743Z,45.10
2018-03-22T09:06:45.713Z,45.90
2018-03-22T09:07:45.687Z,57.20
2018-03-22T09:08:45.654Z,36.90
2018-03-22T09:09:45.669Z,35.70
2018-03-22T09:10:45.597Z,45.20
2018-03-22T09:11:45.565Z,39.00
2018-03-22T09:12:45.537Z,48.00
2018-03-22T09:13:45.508Z,39.30
2018-03-22T09:14:45.485Z,42.70
2018-03-22T09:15:45.448Z,46.30
2018-03-22T09:16:45.424Z,47.80
2018-03-22T09:17:45.391Z,49.60
2018-03-22T09:18:45.365Z,50.10
2018-03-22T09:19:45.352Z,55.50
2018-03-22T09:20:45.302Z,48.80
2018-03-22T09:21:45.282Z,51.40
2018-03-22T09:22:45.257Z,51.10
2018-03-22T09:23:45.217Z,49.00
2018-03-22T09:24:45.185Z,52.30
2018-03-22T09:25:45.156Z,49.60
2018-03-22T09:26:45.129Z,47.20
2018-03-22T09:27:45.097Z,33.80
2018-03-22T09:28:45.067Z,51.70
2018-03-22T09:29:45.039Z,42.10
2018-03-22T09:30:45.011Z,51.40
2018-03-22T09:31:44.981Z,53.40
2018-03-22T09:32:44.952Z,69.40
2018-03-22T09:33:44.930Z,54.10
2018-03-22T09:34:44.895Z,56.70
2018-03-22T09:35:44.868Z,46.40
2018-03-22T09:36:44.834Z,47.70
2018-03-22T09:37:44.810Z,53.70
2018-03-22T09:38:44.779Z,47.30
2018-03-22T09:39:44.756Z,41.60
2018-03-22T09:40:44.719Z,61.50
2018-03-22T09:41:44.988Z,66.50
2018-03-22T09:42:44.661Z,39.50
2018-03-22T09:43:44.633Z,52.50
2018-03-22T09:44:44.601Z,43.00
2018-03-22T09:45:44.591Z,46.80
2018-03-22T09:46:44.544Z,43.00
2018-03-22T09:47:44.516Z,48.50
2018-03-22T09:48:44.484Z,41.00
2018-03-22T09:49:44.457Z,38.70
2018-03-22T09:50:44.432Z,32.80
2018-03-22T09:51:44.397Z,35.70
2018-03-22T09:52:44.373Z,35.60
2018-03-22T09:53:44.374Z,36.00
2018-03-22T09:54:44.314Z,34.10
2018-03-22T09:55:44.283Z,41.00
2018-03-22T09:56:44.258Z,39.90
2018-03-22T09:57:44.226Z,37.00
2018-03-22T09:58:44.200Z,35.00
2018-03-22T09:59:44.169Z,43.30
2018-03-22T10:00:44.138Z,36.70
2018-03-22T10:01:44.111Z,32.60
2018-03-22T10:02:44.089Z,34.10
2018-03-22T10:03:44.053Z,32.40
2018-03-22T10:04:44.027Z,30.90
2018-03-22T10:05:44.018Z,30.70
2018-03-22T10:06:43.968Z,36.20
2018-03-22T10:07:43.944Z,31.10
2018-03-22T10:08:43.910Z,32.00
2018-03-22T10:09:43.883Z,30.80
2018-03-22T10:10:43.853Z,32.20
2018-03-22T10:11:43.825Z,32.40
2018-03-22T10:12:43.796Z,39.80
2018-03-22T10:13:43.777Z,35.10
2018-03-22T10:14:43.740Z,31.80
2018-03-22T10:15:43.710Z,35.40
2018-03-22T10:16:43.682Z,37.20
2018-03-22T10:17:43.654Z,34.30
2018-03-22T10:18:43.626Z,34.20
2018-03-22T10:19:43.596Z,34.90
2018-03-22T10:20:43.577Z,34.70
2018-03-22T10:21:43.599Z,33.20
2018-03-22T10:22:43.511Z,27.80
2018-03-22T10:23:43.482Z,36.10
2018-03-22T10:24:43.454Z,44.30
2018-03-22T10:25:43.432Z,44.90
2018-03-22T10:26:43.398Z,42.60
2018-03-22T10:27:43.371Z,37.90
2018-03-22T10:28:43.340Z,36.90
2018-03-22T10:29:43.312Z,36.90
2018-03-22T10:30:43.284Z,34.90
2018-03-22T10:31:43.270Z,37.90
2018-03-22T10:32:43.226Z,42.70
2018-03-22T10:33:43.203Z,32.80
2018-03-22T10:34:43.173Z,36.50
2018-03-22T10:35:43.140Z,34.70
2018-03-22T10:36:43.122Z,33.30
2018-03-22T10:37:43.084Z,35.50
2018-03-22T10:38:43.058Z,29.80
2018-03-22T10:39:43.069Z,33.80
2018-03-22T10:40:43.000Z,36.20
2018-03-22T10:41:42.971Z,28.90
2018-03-22T10:42:42.945Z,31.70
2018-03-22T10:43:42.914Z,28.50
2018-03-22T10:44:42.886Z,32.00
2018-03-22T10:45:42.859Z,33.30
2018-03-22T10:46:42.831Z,29.80
2018-03-22T10:47:42.802Z,28.90
2018-03-22T10:48:42.774Z,25.80
2018-03-22T10:49:42.750Z,30.10
2018-03-22T10:50:42.719Z,25.20
2018-03-22T10:51:42.706Z,26.10
2018-03-22T10:52:42.662Z,22.20
2018-03-22T10:53:42.640Z,22.70
2018-03-22T10:54:42.608Z,24.40
2018-03-22T10:55:42.580Z,21.00
2018-03-22T10:56:42.552Z,16.40
2018-03-22T10:57:42.525Z,17.40
2018-03-22T10:58:42.497Z,18.00
2018-03-22T10:59:42.469Z,16.70
2018-03-22T11:00:42.442Z,16.90
2018-03-22T11:01:42.414Z,17.00
2018-03-22T11:02:42.387Z,15.80
2018-03-22T11:03:42.373Z,16.10
2018-03-22T11:04:42.332Z,17.30
2018-03-22T11:05:42.304Z,15.00
2018-03-22T11:06:42.284Z,20.00
2018-03-22T11:07:42.249Z,20.60
2018-03-22T11:08:42.222Z,13.30
2018-03-22T11:09:42.194Z,14.70
2018-03-22T11:10:42.167Z,12.30
2018-03-22T11:11:42.139Z,12.20
2018-03-22T11:12:42.112Z,11.20
2018-03-22T11:13:42.085Z,15.50
2018-03-22T11:14:42.060Z,12.60
2018-03-22T11:15:42.028Z,11.00
2018-03-22T11:16:42.301Z,13.80
2018-03-22T11:17:41.973Z,12.40
2018-03-22T11:18:41.945Z,15.30
2018-03-22T11:19:41.917Z,13.90
2018-03-22T11:20:41.890Z,11.90
2018-03-22T11:21:41.862Z,13.10
2018-03-22T11:22:41.834Z,12.70
2018-03-22T11:23:41.806Z,11.40
2018-03-22T11:24:41.778Z,14.80
2018-03-22T11:25:41.750Z,10.80
2018-03-22T11:26:41.723Z,13.50
2018-03-22T11:27:41.695Z,10.90
2018-03-22T11:28:41.666Z,10.60
2018-03-22T11:29:41.649Z,11.00
2018-03-22T11:30:41.614Z,10.80
2018-03-22T11:31:41.586Z,12.00
2018-03-22T11:32:41.555Z,10.30
2018-03-22T11:33:41.531Z,9.70
2018-03-22T11:34:41.499Z,9.60
2018-03-22T11:35:41.470Z,10.20
2018-03-22T11:36:41.442Z,8.90
2018-03-22T11:37:41.414Z,8.10
2018-03-22T11:38:41.388Z,9.90
2018-03-22T11:39:41.356Z,7.30
2018-03-22T11:40:41.330Z,6.70
2018-03-22T11:41:41.302Z,6.00
2018-03-22T11:42:41.277Z,5.10
2018-03-22T11:43:41.246Z,5.80
2018-03-22T11:44:41.218Z,6.60
2018-03-22T11:45:41.190Z,6.10
2018-03-22T11:46:41.166Z,14.00
2018-03-22T11:47:41.134Z,12.80
2018-03-22T11:48:41.115Z,4.50
2018-03-22T11:49:41.082Z,5.10
2018-03-22T11:50:41.053Z,5.70
2018-03-22T11:51:41.027Z,4.80
2018-03-22T11:52:40.998Z,4.60
2018-03-22T11:53:41.027Z,4.90
2018-03-22T11:54:40.944Z,5.10
2018-03-22T11:55:40.922Z,6.20
2018-03-22T11:56:40.891Z,6.40
2018-03-22T11:57:40.905Z,5.70
2018-03-22T11:58:40.836Z,4.70
2018-03-22T11:59:40.808Z,4.10
2018-03-22T12:00:40.781Z,5.50
2018-03-22T12:01:40.755Z,5.00
2018-03-22T12:02:40.727Z,5.10
2018-03-22T12:03:40.700Z,6.20
2018-03-22T12:04:40.673Z,4.80
2018-03-22T12:05:40.653Z,5.30
2018-03-22T12:06:40.625Z,8.80
2018-03-22T12:07:40.595Z,6.10
2018-03-22T12:08:40.565Z,7.60
2018-03-22T12:09:40.538Z,5.90
2018-03-22T12:10:40.511Z,6.60
2018-03-22T12:11:40.483Z,8.40
2018-03-22T12:12:40.457Z,6.80
2018-03-22T12:13:40.429Z,7.00
2018-03-22T12:14:40.403Z,6.40
2018-03-22T12:15:40.375Z,4.50
2018-03-22T12:16:40.357Z,4.30
2018-03-22T12:17:40.323Z,6.80
2018-03-22T12:18:40.295Z,6.20
2018-03-22T12:19:40.274Z,5.10
2018-03-22T12:20:40.240Z,3.40
2018-03-22T12:21:40.305Z,3.70
2018-03-22T12:22:40.192Z,6.70
2018-03-22T12:23:40.158Z,4.60
2018-03-22T12:24:40.131Z,4.20
2018-03-22T12:25:40.104Z,6.50
2018-03-22T12:26:40.085Z,4.90
2018-03-22T12:27:40.063Z,6.90
2018-03-22T12:28:40.036Z,7.20
2018-03-22T12:29:40.003Z,5.20
2018-03-22T12:30:39.972Z,6.00
2018-03-22T12:31:39.944Z,5.60
2018-03-22T12:32:39.929Z,5.10
2018-03-22T12:33:39.889Z,8.40
2018-03-22T12:34:39.857Z,7.90
2018-03-22T12:35:39.831Z,8.10
2018-03-22T12:36:39.803Z,7.30
2018-03-22T12:37:39.775Z,5.30
2018-03-22T12:38:39.756Z,7.50
2018-03-22T12:39:39.758Z,7.30
2018-03-22T12:40:39.694Z,7.90
2018-03-22T12:41:39.665Z,6.80
2018-03-22T12:42:39.639Z,7.60
2018-03-22T12:43:39.673Z,5.40
2018-03-22T12:44:39.585Z,8.60
2018-03-22T12:45:39.556Z,6.30
2018-03-22T12:46:39.528Z,7.30
2018-03-22T12:47:39.500Z,8.10
2018-03-22T12:48:39.472Z,9.60
2018-03-22T12:49:39.445Z,6.60
2018-03-22T12:50:39.435Z,6.20
2018-03-22T12:51:39.397Z,9.70
2018-03-22T12:52:39.361Z,11.40
2018-03-22T12:53:39.338Z,13.50
2018-03-22T12:54:39.306Z,7.50